Time;durP1;ratioP1;P1;durP2;ratioP2;P2;SDS_P1;SDS_P2;PMS_P1;PMS_P2;Temp;Humidity;BMP_temperature;BMP_pressure;BME280_temperature;BME280_humidity;BME280_pressure;Samples;Min_cycle;Max_cycle;Signal;HPM_P1;HPM_P2
2023/06/13 00:01:22;;;;;;;4.47;3.42;;;26.10;49.10;;;;;;5052445;28;20590;-58
2023/06/13 00:03:48;;;;;;;4.10;3.80;;;26.20;49.20;;;;;;5053372;28;20271;-59
2023/06/13 00:06:15;;;;;;;3.50;3.28;;;26.10;49.10;;;;;;5052890;28;20175;-58
2023/06/13 00:08:42;;;;;;;3.92;3.63;;;26.10;49.10;;;;;;5052796;28;20213;-58
2023/06/13 00:11:07;;;;;;;4.47;4.07;;;26.10;49.10;;;;;;5052455;28;20183;-56
2023/06/13 00:13:34;;;;;;;4.65;4.25;;;26.10;49.00;;;;;;5053018;28;20183;-58
2023/06/13 00:16:00;;;;;;;4.00;3.67;;;26.10;49.00;;;;;;5052457;28;20191;-58
2023/06/13 00:18:29;;;;;;;4.50;4.10;;;26.10;49.10;;;;;;5052799;28;20207;-58
2023/06/13 00:20:54;;;;;;;3.65;3.35;;;26.10;49.00;;;;;;5053075;28;20541;-58
2023/06/13 00:23:20;;;;;;;4.10;3.75;;;26.00;49.00;;;;;;5051662;28;20633;-58
2023/06/13 00:25:46;;;;;;;3.78;3.47;;;26.10;48.90;;;;;;5053153;28;20171;-58
2023/06/13 00:28:11;;;;;;;4.72;4.00;;;26.10;49.60;;;;;;5052783;28;20256;-58
2023/06/13 00:30:37;;;;;;;4.25;3.90;;;26.00;48.90;;;;;;5052227;28;20220;-58
2023/06/13 00:33:04;;;;;;;4.38;3.97;;;26.10;49.00;;;;;;5052908;28;20186;-58
2023/06/13 00:35:30;;;;;;;3.97;3.67;;;26.00;49.00;;;;;;5051783;28;20175;-58
2023/06/13 00:37:56;;;;;;;4.70;4.25;;;26.00;48.90;;;;;;5053014;28;20585;-58
2023/06/13 00:40:22;;;;;;;3.97;3.67;;;26.00;48.90;;;;;;5052493;28;20641;-59
2023/06/13 00:42:48;;;;;;;4.13;3.60;;;26.00;49.00;;;;;;5052222;28;20210;-58
2023/06/13 00:45:27;;;;;;;3.47;3.17;;;26.00;49.00;;;;;;5052540;28;20254;-58
2023/06/13 00:47:58;;;;;;;4.00;3.70;;;26.00;49.00;;;;;;5052810;28;20185;-58
2023/06/13 00:50:31;;;;;;;4.18;3.38;;;26.00;49.00;;;;;;5051939;28;20175;-58
2023/06/13 00:52:58;;;;;;;3.97;3.67;;;26.00;48.90;;;;;;5053017;28;20178;-58
2023/06/13 00:55:24;;;;;;;4.35;3.80;;;26.00;49.00;;;;;;5052422;28;20175;-57
2023/06/13 00:57:53;;;;;;;3.70;3.40;;;26.00;49.00;;;;;;5051858;28;20207;-58
2023/06/13 01:00:19;;;;;;;3.97;3.67;;;26.00;49.00;;;;;;5052231;28;20596;-58
2023/06/13 01:02:45;;;;;;;4.50;4.10;;;26.00;49.70;;;;;;5051539;28;20186;-58
2023/06/13 01:05:11;;;;;;;3.90;3.60;;;26.00;48.90;;;;;;5051798;28;20232;-58
2023/06/13 01:07:39;;;;;;;5.03;3.65;;;26.00;49.00;;;;;;5052740;28;20227;-58
2023/06/13 01:10:05;;;;;;;4.13;3.72;;;26.00;49.00;;;;;;5051287;28;20171;-57
2023/06/13 01:12:45;;;;;;;3.92;3.63;;;26.00;49.00;;;;;;5051566;28;20372;-58
2023/06/13 01:15:13;;;;;;;3.88;3.58;;;25.90;48.90;;;;;;5051224;28;20182;-58
2023/06/13 01:17:49;;;;;;;4.28;3.88;;;25.90;48.90;;;;;;5050812;28;20217;-58
2023/06/13 01:20:16;;;;;;;3.90;3.60;;;26.00;48.90;;;;;;5034512;28;20167;-58
2023/06/13 01:23:03;;;;;;;5.80;3.60;;;25.90;49.00;;;;;;5035104;28;20534;-57
2023/06/13 01:25:37;;;;;;;3.70;3.40;;;26.00;48.90;;;;;;5051311;28;20175;-59
2023/06/13 01:28:05;;;;;;;4.43;3.60;;;25.90;48.90;;;;;;5035834;28;20582;-58
2023/06/13 01:30:31;;;;;;;3.85;3.55;;;25.90;48.90;;;;;;5051170;28;20175;-58
2023/06/13 01:32:56;;;;;;;3.80;3.50;;;25.90;48.90;;;;;;5051501;28;20657;-58
2023/06/13 01:35:23;;;;;;;4.43;4.00;;;25.90;48.90;;;;;;5052243;28;20167;-58
2023/06/13 01:37:48;;;;;;;4.45;3.58;;;25.90;48.80;;;;;;5038037;28;20234;-58
2023/06/13 01:40:14;;;;;;;3.97;3.67;;;25.90;48.90;;;;;;5054099;28;20171;-58
2023/06/13 01:42:40;;;;;;;4.82;3.95;;;25.90;48.80;;;;;;5056165;28;20179;-58
2023/06/13 01:45:06;;;;;;;3.97;3.65;;;25.90;48.80;;;;;;5056059;28;20237;-58
2023/06/13 01:48:08;;;;;;;4.07;3.78;;;25.90;48.70;;;;;;5053678;28;20244;-58
2023/06/13 01:50:45;;;;;;;3.75;3.42;;;25.90;48.60;;;;;;5046063;28;20175;-59
2023/06/13 01:53:29;;;;;;;3.90;3.60;;;25.80;48.60;;;;;;5053878;28;20213;-58
2023/06/13 01:56:01;;;;;;;4.22;3.92;;;25.80;48.40;;;;;;5055754;28;20541;-58
2023/06/13 01:58:32;;;;;;;3.47;3.17;;;25.80;48.50;;;;;;5055362;28;20298;-58
2023/06/13 02:00:58;;;;;;;3.63;3.33;;;25.80;48.60;;;;;;5054973;28;20171;-58
2023/06/13 02:03:24;;;;;;;4.57;4.03;;;25.80;48.50;;;;;;5037644;28;20229;-58
2023/06/13 02:05:49;;;;;;;4.43;3.58;;;25.80;48.60;;;;;;5054502;28;20175;-58
2023/06/13 02:08:16;;;;;;;3.90;3.60;;;25.80;48.50;;;;;;5054575;28;20262;-58
2023/06/13 02:10:41;;;;;;;3.60;3.20;;;25.80;48.40;;;;;;5055478;28;20179;-58
2023/06/13 02:13:07;;;;;;;4.13;3.72;;;25.80;48.60;;;;;;5055143;28;20171;-58
2023/06/13 02:15:32;;;;;;;3.97;3.67;;;25.80;48.50;;;;;;5054642;28;20167;-58
2023/06/13 02:17:58;;;;;;;3.90;3.60;;;25.80;48.50;;;;;;5055556;28;20268;-58
2023/06/13 02:20:23;;;;;;;4.05;3.75;;;25.80;48.60;;;;;;5055213;28;20232;-58
2023/06/13 02:22:49;;;;;;;4.10;3.80;;;25.80;48.40;;;;;;5054664;28;20242;-58
2023/06/13 02:25:15;;;;;;;4.15;3.75;;;25.80;48.40;;;;;;5055061;28;20171;-57
2023/06/13 02:27:42;;;;;;;3.78;3.47;;;25.80;48.40;;;;;;5055218;28;20518;-58
2023/06/13 02:30:08;;;;;;;3.70;3.38;;;25.80;48.50;;;;;;5054211;28;20171;-56
2023/06/13 02:32:36;;;;;;;4.18;3.75;;;25.80;48.50;;;;;;5055036;28;20186;-58
2023/06/13 02:35:02;;;;;;;3.92;3.60;;;25.80;48.40;;;;;;5054437;28;20553;-59
2023/06/13 02:37:27;;;;;;;4.38;3.97;;;25.80;48.40;;;;;;5054372;28;20721;-58
2023/06/13 02:39:53;;;;;;;4.05;3.60;;;25.70;48.40;;;;;;5054858;28;20648;-58
2023/06/13 02:42:18;;;;;;;4.38;3.97;;;25.70;48.40;;;;;;5053878;28;20187;-58
2023/06/13 02:44:44;;;;;;;4.13;3.72;;;25.70;48.40;;;;;;5054974;28;20171;-58
2023/06/13 02:47:09;;;;;;;3.88;3.58;;;25.70;48.40;;;;;;5054352;28;20179;-59
2023/06/13 02:49:35;;;;;;;3.78;3.47;;;25.70;48.40;;;;;;5054119;28;20171;-58
2023/06/13 02:52:01;;;;;;;5.00;3.47;;;25.70;48.30;;;;;;5054789;28;20175;-58
2023/06/13 02:54:26;;;;;;;3.88;3.58;;;25.70;48.40;;;;;;5054443;28;20187;-58
2023/06/13 02:56:52;;;;;;;3.75;3.45;;;25.70;48.40;;;;;;5053882;28;20542;-58
2023/06/13 02:59:19;;;;;;;4.10;3.80;;;25.70;48.30;;;;;;5054219;28;20658;-58
2023/06/13 03:01:45;;;;;;;3.67;3.38;;;25.70;48.40;;;;;;5054794;28;20171;-58
2023/06/13 03:04:11;;;;;;;4.10;3.80;;;25.70;48.40;;;;;;5053715;28;20178;-58
2023/06/13 03:06:40;;;;;;;4.00;3.60;;;25.70;48.30;;;;;;5054533;28;20171;-58
2023/06/13 03:09:06;;;;;;;3.85;3.55;;;25.70;48.40;;;;;;5054611;28;20236;-58
2023/06/13 03:11:32;;;;;;;4.07;3.78;;;25.70;48.40;;;;;;5053381;28;20264;-58
2023/06/13 03:13:57;;;;;;;4.63;4.22;;;25.70;48.40;;;;;;5054284;28;20171;-58
2023/06/13 03:16:23;;;;;;;4.47;4.07;;;25.70;48.40;;;;;;5054134;28;20175;-58
2023/06/13 03:18:48;;;;;;;3.70;3.40;;;25.60;48.30;;;;;;5053799;28;20207;-58
2023/06/13 03:21:15;;;;;;;4.10;3.80;;;25.60;48.30;;;;;;5053957;28;20224;-58
2023/06/13 03:23:40;;;;;;;3.92;3.63;;;25.60;48.40;;;;;;5054122;28;20709;-58
2023/06/13 03:26:06;;;;;;;3.63;3.33;;;25.60;48.30;;;;;;5053288;28;20171;-57
2023/06/13 03:28:31;;;;;;;4.35;3.95;;;25.70;48.40;;;;;;5053617;28;20187;-58
2023/06/13 03:30:57;;;;;;;4.03;3.72;;;25.60;48.30;;;;;;5054201;28;20521;-58
2023/06/13 03:33:23;;;;;;;3.85;3.55;;;25.60;48.20;;;;;;5053132;28;20589;-58
2023/06/13 03:35:48;;;;;;;4.38;3.80;;;25.60;48.30;;;;;;5053774;28;20688;-59
2023/06/13 03:38:14;;;;;;;3.70;3.40;;;25.60;48.20;;;;;;5053623;28;20233;-60
2023/06/13 03:40:39;;;;;;;4.20;3.80;;;25.60;48.30;;;;;;5053125;28;20183;-58
2023/06/13 03:43:05;;;;;;;5.07;4.05;;;25.60;48.20;;;;;;5053558;28;20507;-59
2023/06/13 03:45:30;;;;;;;3.85;3.55;;;25.60;48.30;;;;;;5052571;28;20216;-58
2023/06/13 03:47:56;;;;;;;4.43;4.03;;;25.60;48.20;;;;;;5053772;28;20186;-58
2023/06/13 03:50:21;;;;;;;4.30;3.90;;;25.60;48.30;;;;;;5053323;28;20174;-58
2023/06/13 03:52:47;;;;;;;4.60;4.20;;;25.60;48.20;;;;;;5053005;28;20179;-58
2023/06/13 03:55:13;;;;;;;4.47;4.07;;;25.60;48.30;;;;;;5053418;28;20228;-57
2023/06/13 03:57:39;;;;;;;4.28;3.97;;;25.60;48.20;;;;;;5053028;28;20214;-58
2023/06/13 04:00:07;;;;;;;4.38;3.97;;;25.60;48.20;;;;;;5052162;28;20189;-58
2023/06/13 04:02:33;;;;;;;4.30;3.90;;;25.60;48.20;;;;;;5053463;28;20203;-58
2023/06/13 04:05:00;;;;;;;4.25;3.85;;;25.60;48.90;;;;;;5053493;28;20245;-58
2023/06/13 04:07:26;;;;;;;3.92;3.55;;;25.60;48.20;;;;;;5052363;28;20186;-58
2023/06/13 04:09:51;;;;;;;4.40;4.00;;;25.60;48.20;;;;;;5053209;28;20183;-57
2023/06/13 04:12:17;;;;;;;4.03;3.55;;;25.60;48.10;;;;;;5053027;28;20256;-58
2023/06/13 04:14:42;;;;;;;4.00;3.70;;;25.60;48.20;;;;;;5052662;28;20262;-58
2023/06/13 04:17:09;;;;;;;4.75;3.95;;;25.60;48.10;;;;;;5052866;28;20680;-58
2023/06/13 04:19:35;;;;;;;4.55;4.15;;;25.60;48.10;;;;;;5053124;28;20634;-58
2023/06/13 04:22:01;;;;;;;4.50;4.13;;;25.60;48.10;;;;;;5052428;28;20171;-58
2023/06/13 04:24:27;;;;;;;4.07;3.78;;;25.60;48.10;;;;;;5052722;28;20202;-58
2023/06/13 04:26:52;;;;;;;4.55;3.88;;;25.60;48.20;;;;;;5053024;28;20167;-58
2023/06/13 04:29:18;;;;;;;3.90;3.60;;;25.60;48.10;;;;;;5052021;28;20179;-57
2023/06/13 04:31:45;;;;;;;4.18;3.88;;;25.60;48.10;;;;;;5053044;28;20181;-57
2023/06/13 04:34:11;;;;;;;4.30;3.92;;;25.60;48.10;;;;;;5052811;28;20190;-58
2023/06/13 04:36:38;;;;;;;4.07;3.78;;;25.50;48.00;;;;;;5052002;28;20760;-57
2023/06/13 04:39:07;;;;;;;4.32;3.92;;;25.60;48.10;;;;;;5052564;28;20223;-57
2023/06/13 04:41:37;;;;;;;4.63;4.22;;;25.60;48.10;;;;;;5052815;28;20189;-58
2023/06/13 04:44:09;;;;;;;4.70;4.30;;;25.60;48.10;;;;;;5052670;28;20642;-57
2023/06/13 04:46:35;;;;;;;4.13;3.75;;;25.60;48.10;;;;;;5052621;28;20759;-58
2023/06/13 04:49:04;;;;;;;4.35;3.95;;;25.60;48.10;;;;;;5051987;28;20170;-58
2023/06/13 04:51:30;;;;;;;4.03;3.72;;;25.60;48.10;;;;;;5052409;28;20205;-57
2023/06/13 04:54:00;;;;;;;4.28;3.97;;;25.60;48.10;;;;;;5051512;28;20758;-57
2023/06/13 04:56:26;;;;;;;3.78;3.47;;;25.60;48.10;;;;;;5051643;28;20634;-57
2023/06/13 04:58:52;;;;;;;5.88;3.70;;;25.60;48.10;;;;;;5052692;28;20221;-57
2023/06/13 05:01:19;;;;;;;4.05;3.75;;;25.60;48.10;;;;;;5052338;28;20179;-57
2023/06/13 05:03:45;;;;;;;4.90;4.38;;;25.60;48.10;;;;;;5052090;28;20549;-58
2023/06/13 05:06:12;;;;;;;5.03;4.15;;;25.60;48.10;;;;;;5052238;28;20638;-58
2023/06/13 05:08:37;;;;;;;4.40;4.03;;;25.60;48.10;;;;;;5052633;28;20206;-58
2023/06/13 05:11:03;;;;;;;4.03;3.72;;;25.60;48.10;;;;;;5055130;28;20247;-57
2023/06/13 05:13:28;;;;;;;4.88;4.32;;;25.60;48.10;;;;;;5056044;28;20179;-57
2023/06/13 05:15:55;;;;;;;4.07;3.67;;;25.60;48.10;;;;;;5056518;28;20163;-57
2023/06/13 05:18:24;;;;;;;4.47;4.10;;;25.60;48.10;;;;;;5055300;28;20210;-58
2023/06/13 05:20:50;;;;;;;4.32;3.92;;;25.60;48.10;;;;;;5056333;28;20175;-58
2023/06/13 05:23:15;;;;;;;4.07;3.70;;;25.60;48.10;;;;;;5056258;28;20517;-57
2023/06/13 05:25:41;;;;;;;3.95;3.65;;;25.60;48.10;;;;;;5055483;28;20569;-57
2023/06/13 05:28:06;;;;;;;5.32;4.07;;;25.60;48.10;;;;;;5056126;28;20179;-57
2023/06/13 05:30:32;;;;;;;4.20;3.90;;;25.60;48.10;;;;;;5056110;28;20167;-57
2023/06/13 05:32:58;;;;;;;4.10;3.80;;;25.60;48.80;;;;;;5055577;28;20241;-57
2023/06/13 05:35:23;;;;;;;4.53;4.13;;;25.60;48.20;;;;;;5055462;28;20221;-58
2023/06/13 05:37:50;;;;;;;4.40;4.00;;;25.60;48.20;;;;;;5055854;28;20284;-57
2023/06/13 05:40:15;;;;;;;4.45;4.05;;;25.60;48.20;;;;;;5055456;28;20233;-57
2023/06/13 05:42:41;;;;;;;4.00;3.70;;;25.60;48.20;;;;;;5056076;28;20171;-57
2023/06/13 05:45:07;;;;;;;4.35;4.00;;;25.60;48.20;;;;;;5055240;28;20250;-57
2023/06/13 05:47:33;;;;;;;4.00;3.70;;;25.60;48.20;;;;;;5055953;28;20180;-57
2023/06/13 05:49:58;;;;;;;4.30;3.90;;;25.60;48.20;;;;;;5055838;28;20171;-60
2023/06/13 05:52:24;;;;;;;4.18;3.88;;;25.60;48.30;;;;;;5054863;28;20179;-58
2023/06/13 05:54:50;;;;;;;4.22;3.92;;;25.60;48.30;;;;;;5055616;28;20545;-57
2023/06/13 05:57:15;;;;;;;4.05;3.75;;;25.60;48.40;;;;;;5055380;28;20207;-58
2023/06/13 05:59:41;;;;;;;4.15;3.72;;;25.60;48.40;;;;;;5054824;28;20668;-57
2023/06/13 06:02:07;;;;;;;5.07;3.97;;;25.60;48.50;;;;;;5055612;28;20182;-57
2023/06/13 06:04:33;;;;;;;4.20;3.90;;;25.60;48.60;;;;;;5054164;28;20701;-58
2023/06/13 06:06:58;;;;;;;3.80;3.50;;;25.60;48.60;;;;;;5054847;28;20312;-58
2023/06/13 06:09:24;;;;;;;4.13;3.80;;;25.60;48.60;;;;;;5055064;28;20178;-58
2023/06/13 06:11:51;;;;;;;4.13;3.78;;;25.60;48.60;;;;;;5055608;28;20225;-58
2023/06/13 06:14:16;;;;;;;4.15;3.83;;;25.60;48.70;;;;;;5054341;28;20608;-58
2023/06/13 06:16:42;;;;;;;4.80;4.40;;;25.60;48.70;;;;;;5055367;28;20661;-58
2023/06/13 06:19:07;;;;;;;4.78;4.03;;;25.60;48.70;;;;;;5054901;28;20306;-57
2023/06/13 06:21:33;;;;;;;4.60;4.20;;;25.60;48.80;;;;;;5053492;28;20262;-58
2023/06/13 06:23:58;;;;;;;4.03;3.63;;;25.60;48.80;;;;;;5055204;28;20175;-57
2023/06/13 06:26:24;;;;;;;4.30;4.00;;;25.60;48.80;;;;;;5054497;28;20229;-57
2023/06/13 06:28:50;;;;;;;4.00;3.70;;;25.60;48.80;;;;;;5054647;28;20186;-57
2023/06/13 06:31:16;;;;;;;3.65;3.40;;;25.60;48.80;;;;;;5054825;28;20180;-57
2023/06/13 06:33:41;;;;;;;3.70;3.40;;;25.60;48.80;;;;;;5055009;28;20179;-58
2023/06/13 06:36:07;;;;;;;4.30;4.00;;;25.60;48.80;;;;;;5054090;28;20276;-57
2023/06/13 06:38:32;;;;;;;4.50;3.95;;;25.60;48.80;;;;;;5054713;28;20218;-58
2023/06/13 06:40:58;;;;;;;3.90;3.60;;;25.60;48.90;;;;;;5054993;28;20642;-57
2023/06/13 06:43:23;;;;;;;4.38;3.92;;;25.60;48.90;;;;;;5053921;28;20199;-59
2023/06/13 06:45:49;;;;;;;6.03;3.95;;;25.60;49.00;;;;;;5054730;28;20590;-58
2023/06/13 06:48:15;;;;;;;5.60;3.97;;;25.60;49.00;;;;;;5053732;28;20689;-58
2023/06/13 06:50:40;;;;;;;4.63;4.10;;;25.70;49.50;;;;;;5054959;28;20687;-58
2023/06/13 06:53:06;;;;;;;6.68;4.25;;;25.70;49.40;;;;;;5054937;28;20187;-59
2023/06/13 06:55:31;;;;;;;4.88;3.67;;;25.70;49.30;;;;;;5053649;28;20885;-58
2023/06/13 06:57:57;;;;;;;4.57;4.18;;;25.70;49.50;;;;;;5054510;28;20681;-59
2023/06/13 07:00:22;;;;;;;6.10;4.30;;;25.70;49.40;;;;;;5054297;28;20524;-59
2023/06/13 07:02:48;;;;;;;4.35;3.95;;;25.70;49.60;;;;;;5053693;28;20642;-59
2023/06/13 07:05:16;;;;;;;5.10;4.40;;;25.70;49.90;;;;;;5054038;28;20214;-59
2023/06/13 07:07:42;;;;;;;5.55;3.88;;;25.70;49.90;;;;;;5054543;28;20199;-58
2023/06/13 07:10:08;;;;;;;5.13;4.30;;;25.70;49.60;;;;;;5053545;28;20254;-58
2023/06/13 07:12:34;;;;;;;4.55;4.15;;;25.80;49.80;;;;;;5054000;28;20579;-58
2023/06/13 07:15:00;;;;;;;4.10;3.80;;;25.80;49.60;;;;;;5054310;28;20262;-58
2023/06/13 07:17:26;;;;;;;4.00;3.60;;;25.80;49.80;;;;;;5052604;28;20338;-58
2023/06/13 07:19:51;;;;;;;4.45;4.05;;;25.80;49.70;;;;;;5054309;28;20232;-58
2023/06/13 07:22:17;;;;;;;5.72;4.35;;;25.70;49.30;;;;;;5054003;28;20167;-58
2023/06/13 07:24:42;;;;;;;4.20;3.80;;;25.80;49.20;;;;;;5053539;28;20614;-58
2023/06/13 07:27:08;;;;;;;4.15;3.75;;;25.80;49.20;;;;;;5053918;28;20718;-58
2023/06/13 07:29:34;;;;;;;4.00;3.70;;;25.80;49.20;;;;;;5053931;28;20182;-58
2023/06/13 07:32:00;;;;;;;4.20;3.90;;;25.80;49.00;;;;;;5053194;28;20179;-58
2023/06/13 07:34:26;;;;;;;4.80;4.30;;;25.70;49.00;;;;;;5053520;28;20183;-58
2023/06/13 07:36:53;;;;;;;4.50;3.95;;;25.70;48.90;;;;;;5053754;28;20226;-58
2023/06/13 07:39:18;;;;;;;4.50;3.80;;;25.80;49.10;;;;;;5052751;28;20218;-59
2023/06/13 07:41:46;;;;;;;4.07;3.67;;;25.80;49.20;;;;;;5053893;28;20171;-58
2023/06/13 07:44:12;;;;;;;5.35;4.25;;;25.80;49.20;;;;;;5053505;28;20179;-58
2023/06/13 07:46:37;;;;;;;4.15;3.75;;;25.80;49.30;;;;;;5053372;28;20174;-59
2023/06/13 07:49:03;;;;;;;6.15;4.10;;;25.80;49.30;;;;;;5053584;28;20175;-58
2023/06/13 07:51:28;;;;;;;4.07;3.78;;;25.80;49.30;;;;;;5053359;28;20179;-58
2023/06/13 07:53:54;;;;;;;4.30;3.90;;;25.80;49.20;;;;;;5053308;28;20167;-57
2023/06/13 07:56:20;;;;;;;4.97;3.38;;;25.80;49.20;;;;;;5053183;28;20186;-57
2023/06/13 07:58:45;;;;;;;4.25;3.85;;;25.90;49.20;;;;;;5052802;28;20294;-58
2023/06/13 08:01:11;;;;;;;4.15;3.85;;;25.80;49.10;;;;;;5053362;28;20302;-58
2023/06/13 08:03:36;;;;;;;3.78;3.45;;;25.80;49.10;;;;;;5053413;28;20222;-58
2023/06/13 08:06:02;;;;;;;4.28;3.88;;;25.90;49.20;;;;;;5052739;28;20195;-58
2023/06/13 08:08:27;;;;;;;4.05;3.72;;;25.90;49.10;;;;;;5053111;28;20209;-58
2023/06/13 08:10:53;;;;;;;4.00;3.70;;;25.90;49.00;;;;;;5053342;28;20236;-58
2023/06/13 08:13:19;;;;;;;3.70;3.40;;;25.90;49.00;;;;;;5052193;28;20635;-58
2023/06/13 08:15:44;;;;;;;4.00;3.70;;;25.90;48.90;;;;;;5053143;28;20167;-58
2023/06/13 08:18:10;;;;;;;4.60;4.10;;;25.90;48.90;;;;;;5053088;28;20770;-58
2023/06/13 08:20:36;;;;;;;3.85;3.55;;;25.90;48.90;;;;;;5052255;28;20873;-59
2023/06/13 08:23:01;;;;;;;4.75;4.28;;;25.90;48.90;;;;;;5053230;28;20225;-58
2023/06/13 08:25:27;;;;;;;4.82;4.20;;;25.90;48.80;;;;;;5052765;28;20253;-58
2023/06/13 08:27:52;;;;;;;4.05;3.65;;;26.00;48.80;;;;;;5052329;28;20171;-58
2023/06/13 08:30:18;;;;;;;4.00;3.65;;;26.00;48.70;;;;;;5052490;28;20171;-59
2023/06/13 08:32:46;;;;;;;4.25;3.85;;;26.00;48.70;;;;;;5052850;28;20194;-58
2023/06/13 08:35:12;;;;;;;5.40;4.10;;;26.00;48.70;;;;;;5051951;28;20538;-58
2023/06/13 08:37:38;;;;;;;4.00;3.70;;;26.00;48.80;;;;;;5052568;28;20231;-58
2023/06/13 08:40:05;;;;;;;3.92;3.63;;;26.00;48.70;;;;;;5052874;28;20257;-58
2023/06/13 08:42:32;;;;;;;3.72;3.42;;;26.00;48.70;;;;;;5051924;28;20981;-58
2023/06/13 08:44:57;;;;;;;4.25;3.85;;;26.00;48.70;;;;;;5052296;28;20183;-59
2023/06/13 08:47:23;;;;;;;3.50;3.20;;;26.00;48.70;;;;;;5052571;28;20179;-58
2023/06/13 08:49:48;;;;;;;3.88;3.58;;;26.00;48.70;;;;;;5051906;28;20669;-58
2023/06/13 08:52:14;;;;;;;3.83;3.53;;;26.00;48.70;;;;;;5052413;28;20183;-58
2023/06/13 08:54:42;;;;;;;5.10;3.70;;;26.00;48.60;;;;;;5051635;28;20175;-58
2023/06/13 08:57:09;;;;;;;3.92;3.63;;;26.00;48.60;;;;;;5051510;28;20678;-58
2023/06/13 08:59:36;;;;;;;3.60;3.28;;;26.00;48.60;;;;;;5034847;28;20187;-58
2023/06/13 09:02:01;;;;;;;4.32;3.88;;;26.10;48.50;;;;;;5050631;28;20171;-59
2023/06/13 09:04:27;;;;;;;3.72;3.53;;;26.00;48.50;;;;;;5034012;28;20657;-60
2023/06/13 09:06:56;;;;;;;3.92;3.63;;;26.10;48.60;;;;;;5051435;28;20190;-58
2023/06/13 09:09:21;;;;;;;5.18;3.83;;;26.10;48.50;;;;;;5049273;28;20607;-58
2023/06/13 09:11:47;;;;;;;4.30;3.92;;;26.10;48.70;;;;;;5051651;28;20179;-58
2023/06/13 09:14:12;;;;;;;4.47;3.90;;;26.20;48.70;;;;;;5050842;28;20171;-58
2023/06/13 09:16:38;;;;;;;4.68;3.70;;;26.10;48.50;;;;;;5050425;28;20178;-59
2023/06/13 09:19:04;;;;;;;6.03;3.63;;;26.20;48.70;;;;;;5051040;28;20222;-59
2023/06/13 09:21:29;;;;;;;4.50;3.78;;;26.20;48.60;;;;;;5052154;28;20178;-58
2023/06/13 09:23:57;;;;;;;4.40;3.88;;;26.20;48.40;;;;;;5051897;28;20643;-58
2023/06/13 09:26:23;;;;;;;4.72;3.90;;;26.20;48.50;;;;;;5051787;28;20178;-58
2023/06/13 09:28:49;;;;;;;4.10;3.80;;;26.20;48.50;;;;;;5054847;28;20178;-58
2023/06/13 09:31:14;;;;;;;4.05;3.65;;;26.30;48.50;;;;;;5065271;28;20178;-59
2023/06/13 09:33:42;;;;;;;4.00;3.60;;;26.30;48.40;;;;;;5056045;28;20179;-59
2023/06/13 09:36:09;;;;;;;5.47;3.90;;;26.30;48.20;;;;;;5051865;28;20223;-58
2023/06/13 09:38:36;;;;;;;5.47;3.88;;;26.30;48.00;;;;;;5071742;28;20210;-58
2023/06/13 09:41:03;;;;;;;5.25;4.13;;;26.30;48.00;;;;;;5072254;28;20177;-58
2023/06/13 09:43:29;;;;;;;4.40;3.35;;;26.40;48.00;;;;;;5053132;28;20668;-58
2023/06/13 09:45:54;;;;;;;4.07;3.67;;;26.40;48.00;;;;;;5062200;28;20244;-59
2023/06/13 09:48:20;;;;;;;3.50;3.20;;;26.40;47.90;;;;;;5071987;28;20270;-58
2023/06/13 09:50:46;;;;;;;4.00;3.60;;;26.40;47.90;;;;;;5072293;28;20174;-58
2023/06/13 09:53:12;;;;;;;6.25;3.75;;;26.40;47.90;;;;;;5071170;28;20174;-58
2023/06/13 09:55:38;;;;;;;6.32;4.18;;;26.40;47.80;;;;;;5072200;28;20170;-58
2023/06/13 09:58:03;;;;;;;4.20;3.85;;;26.50;47.80;;;;;;5074816;28;20613;-58
2023/06/13 10:00:29;;;;;;;5.28;4.07;;;26.40;47.70;;;;;;5075125;28;20166;-58
2023/06/13 10:02:55;;;;;;;4.40;4.00;;;26.50;47.70;;;;;;5064582;28;20262;-58
2023/06/13 10:05:21;;;;;;;3.72;3.22;;;26.50;47.60;;;;;;5054725;28;20266;-58
2023/06/13 10:07:47;;;;;;;5.05;3.88;;;26.50;47.60;;;;;;5055652;28;20560;-58
2023/06/13 10:10:12;;;;;;;3.97;3.58;;;26.50;47.50;;;;;;5055199;28;20179;-58
2023/06/13 10:12:40;;;;;;;5.18;3.92;;;26.50;47.50;;;;;;5055118;28;20266;-58
2023/06/13 10:15:06;;;;;;;3.67;3.38;;;26.50;47.40;;;;;;5055724;28;20183;-57
2023/06/13 10:17:33;;;;;;;4.28;3.88;;;26.60;47.40;;;;;;5055223;28;20250;-58
2023/06/13 10:20:01;;;;;;;4.18;3.70;;;26.60;47.30;;;;;;5037306;28;20202;-59
2023/06/13 10:22:26;;;;;;;4.68;3.67;;;26.60;47.20;;;;;;5053694;28;20183;-58
2023/06/13 10:24:52;;;;;;;4.18;3.70;;;26.60;47.20;;;;;;5037609;28;20182;-58
2023/06/13 10:27:18;;;;;;;4.10;3.70;;;26.60;47.20;;;;;;5054208;28;20185;-58
2023/06/13 10:30:02;;;;;;;3.72;3.42;;;26.60;47.00;;;;;;5054280;28;20178;-58
2023/06/13 10:32:56;;;;;;;3.70;3.40;;;26.60;47.00;;;;;;5053582;28;20178;-58
2023/06/13 10:35:48;;;;;;;3.83;3.53;;;26.60;47.60;;;;;;5052566;28;20171;-59
2023/06/13 10:38:45;;;;;;;6.97;3.55;;;26.60;47.00;;;;;;5034747;28;20242;-58
2023/06/13 10:41:29;;;;;;;6.22;3.95;;;26.60;46.90;;;;;;5034232;28;20589;-59
2023/06/13 10:44:07;;;;;;;4.43;4.03;;;26.60;46.90;;;;;;5033776;28;20172;-59
2023/06/13 10:46:33;;;;;;;5.03;3.95;;;26.60;46.90;;;;;;5034581;28;20183;-58
2023/06/13 10:49:01;;;;;;;5.72;3.97;;;26.60;46.80;;;;;;5033154;28;20172;-59
2023/06/13 10:51:29;;;;;;;4.32;3.88;;;26.60;46.70;;;;;;5033633;28;20580;-58
2023/06/13 10:54:04;;;;;;;5.03;3.60;;;26.60;46.80;;;;;;5034606;28;20692;-58
2023/06/13 10:56:31;;;;;;;4.63;3.67;;;26.70;46.90;;;;;;5033748;28;20258;-58
2023/06/13 10:59:07;;;;;;;4.88;3.75;;;26.70;46.90;;;;;;5034765;28;20211;-59
2023/06/13 11:01:34;;;;;;;4.35;3.95;;;26.70;46.80;;;;;;5034048;28;20278;-59
2023/06/13 11:04:08;;;;;;;5.82;3.45;;;26.70;46.80;;;;;;5034571;28;20661;-59
2023/06/13 11:06:35;;;;;;;3.70;3.40;;;26.70;46.80;;;;;;5034336;28;20186;-58
2023/06/13 11:09:08;;;;;;;8.13;3.90;;;26.70;46.80;;;;;;5033399;28;20180;-58
2023/06/13 11:11:42;;;;;;;4.80;3.65;;;26.70;46.90;;;;;;5034488;28;20187;-56
2023/06/13 11:14:07;;;;;;;4.65;3.65;;;26.70;46.90;;;;;;5034449;28;20180;-58
2023/06/13 11:16:36;;;;;;;3.95;3.50;;;26.70;46.90;;;;;;5033528;28;20190;-57
2023/06/13 11:19:17;;;;;;;4.65;4.25;;;26.70;46.90;;;;;;5034041;28;20211;-57
2023/06/13 11:21:49;;;;;;;4.40;3.85;;;26.70;46.80;;;;;;5033119;28;20187;-58
2023/06/13 11:24:15;;;;;;;4.90;4.45;;;26.70;46.70;;;;;;5033290;28;20557;-55
2023/06/13 11:26:42;;;;;;;4.40;4.00;;;26.60;46.60;;;;;;5034399;28;20674;-57
2023/06/13 11:29:08;;;;;;;4.32;3.92;;;26.70;46.60;;;;;;5032741;28;20183;-55
2023/06/13 11:31:34;;;;;;;4.50;3.83;;;26.70;46.60;;;;;;5033285;28;20575;-56
2023/06/13 11:34:00;;;;;;;5.05;4.10;;;26.80;46.60;;;;;;5033160;28;20538;-57
2023/06/13 11:36:26;;;;;;;4.88;3.90;;;26.70;46.50;;;;;;5044260;28;20786;-57
2023/06/13 11:38:57;;;;;;;4.40;3.72;;;26.70;46.50;;;;;;5071915;28;20214;-58
2023/06/13 11:41:22;;;;;;;4.18;3.88;;;26.70;46.50;;;;;;5073402;28;20182;-57
2023/06/13 11:43:51;;;;;;;4.30;3.80;;;26.70;46.40;;;;;;5071682;28;20178;-56
2023/06/13 11:46:16;;;;;;;4.63;3.80;;;26.80;46.40;;;;;;5073479;28;20186;-58
2023/06/13 11:48:43;;;;;;;4.38;3.97;;;26.70;46.30;;;;;;5072509;28;20166;-57
2023/06/13 11:51:08;;;;;;;4.30;3.85;;;26.80;46.20;;;;;;5072548;28;20170;-57
2023/06/13 11:53:48;;;;;;;4.40;4.00;;;26.80;46.20;;;;;;5073625;28;20179;-57
2023/06/13 11:56:15;;;;;;;4.07;3.75;;;26.70;46.10;;;;;;5073078;28;20693;-57
2023/06/13 11:58:40;;;;;;;4.43;4.03;;;26.80;46.10;;;;;;5072608;28;20220;-57
2023/06/13 12:01:06;;;;;;;4.75;4.20;;;26.80;46.10;;;;;;5073684;28;20253;-57
2023/06/13 12:03:38;;;;;;;5.00;4.10;;;26.80;46.10;;;;;;5073405;28;20232;-59
2023/06/13 12:06:06;;;;;;;3.88;3.58;;;26.80;46.00;;;;;;5072733;28;20538;-59
2023/06/13 12:08:34;;;;;;;4.50;4.20;;;26.80;46.00;;;;;;5071958;28;20712;-58
2023/06/13 12:11:01;;;;;;;5.45;4.20;;;26.90;46.00;;;;;;5072039;28;20236;-58
2023/06/13 12:13:27;;;;;;;5.28;4.30;;;26.80;45.90;;;;;;5070946;28;20186;-58
2023/06/13 12:15:52;;;;;;;4.72;4.10;;;26.90;46.00;;;;;;5073437;28;20629;-58
2023/06/13 12:18:18;;;;;;;5.03;4.28;;;26.90;46.00;;;;;;5073033;28;20297;-58
2023/06/13 12:20:48;;;;;;;5.97;4.07;;;26.90;46.10;;;;;;5072022;28;20175;-58
2023/06/13 12:23:15;;;;;;;4.72;4.32;;;26.90;46.10;;;;;;5072859;28;20232;-58
2023/06/13 12:25:40;;;;;;;5.20;4.32;;;26.90;46.00;;;;;;5072043;28;20237;-60
2023/06/13 12:28:06;;;;;;;5.35;4.10;;;26.90;46.10;;;;;;5072566;28;20526;-58
2023/06/13 12:30:41;;;;;;;4.55;4.13;;;26.90;46.00;;;;;;5071879;28;20205;-59
2023/06/13 12:33:07;;;;;;;4.40;4.10;;;26.90;45.90;;;;;;5071935;28;20193;-58
2023/06/13 12:35:32;;;;;;;5.85;3.97;;;26.90;45.90;;;;;;5072809;28;20178;-57
2023/06/13 12:38:02;;;;;;;5.38;4.15;;;26.90;46.00;;;;;;5052429;28;20329;-58
2023/06/13 12:40:32;;;;;;;5.22;4.68;;;26.90;45.90;;;;;;5051756;28;20222;-58
2023/06/13 12:43:00;;;;;;;6.03;4.07;;;26.90;45.90;;;;;;5053012;28;20207;-58
2023/06/13 12:45:27;;;;;;;5.55;4.38;;;26.80;46.00;;;;;;5051227;28;20289;-58
2023/06/13 12:47:54;;;;;;;6.35;4.50;;;26.90;45.90;;;;;;5052039;28;20187;-58